createdAt,value
2023-02-11T00:00:43.108Z,-1.26
2023-02-11T00:03:13.491Z,-1.23
2023-02-11T00:05:43.814Z,-1.22
2023-02-11T00:08:16.958Z,-1.21
2023-02-11T00:10:47.462Z,-1.20
2023-02-11T00:13:17.982Z,-1.17
2023-02-11T00:15:48.588Z,-1.13
2023-02-11T00:18:19.213Z,-1.08
2023-02-11T00:20:49.680Z,-1.03
2023-02-11T00:23:20.338Z,-0.98
2023-02-11T00:25:51.462Z,-0.92
2023-02-11T00:28:22.062Z,-0.88
2023-02-11T00:30:59.091Z,-0.84
2023-02-11T00:33:29.606Z,-0.81
2023-02-11T00:36:00.000Z,-0.78
2023-02-11T00:38:30.384Z,-0.76
2023-02-11T00:41:00.810Z,-0.76
2023-02-11T00:43:31.318Z,-0.77
2023-02-11T00:46:01.717Z,-0.79
2023-02-11T00:48:34.461Z,-0.81
2023-02-11T00:51:05.826Z,-0.83
2023-02-11T00:53:35.006Z,-0.82
2023-02-11T00:56:06.588Z,-0.82
2023-02-11T00:58:37.124Z,-0.83
2023-02-11T01:01:07.775Z,-0.83
2023-02-11T01:03:38.224Z,-0.83
2023-02-11T01:06:09.767Z,-0.84
2023-02-11T01:08:41.370Z,-0.81
2023-02-11T01:11:16.747Z,-0.81
2023-02-11T01:13:50.201Z,-0.82
2023-02-11T01:16:22.548Z,-0.82
2023-02-11T01:18:52.982Z,-0.82
2023-02-11T01:21:23.408Z,-0.81
2023-02-11T01:23:54.669Z,-0.81
2023-02-11T01:26:25.193Z,-0.79
2023-02-11T01:28:55.827Z,-0.77
2023-02-11T01:31:26.268Z,-0.75
2023-02-11T01:33:56.729Z,-0.72
2023-02-11T01:36:26.956Z,-0.69
2023-02-11T01:38:57.355Z,-0.64
2023-02-11T01:41:27.693Z,-0.59
2023-02-11T01:44:14.555Z,-0.56
2023-02-11T01:46:45.059Z,-0.54
2023-02-11T01:49:20.153Z,-0.53
2023-02-11T01:51:56.231Z,-0.50
2023-02-11T01:54:49.202Z,-0.47
2023-02-11T01:57:24.949Z,-0.44
2023-02-11T02:00:05.901Z,-0.42
2023-02-11T02:02:53.811Z,-0.40
2023-02-11T02:05:31.956Z,-0.36
2023-02-11T02:08:12.042Z,-0.35
2023-02-11T02:10:46.739Z,-0.33
2023-02-11T02:13:18.328Z,-0.32
2023-02-11T02:15:53.377Z,-0.33
2023-02-11T02:18:36.952Z,-0.33
2023-02-11T02:21:47.066Z,-0.31
2023-02-11T02:24:44.494Z,-0.20
2023-02-11T02:27:42.222Z,-0.06
2023-02-11T02:30:35.808Z,0.09
2023-02-11T02:33:23.677Z,0.21
2023-02-11T02:36:07.227Z,0.35
2023-02-11T02:38:45.046Z,0.46
2023-02-11T02:41:18.786Z,0.55
2023-02-11T02:43:52.054Z,0.62
2023-02-11T02:46:24.826Z,0.67
2023-02-11T02:48:56.575Z,0.72
2023-02-11T02:51:53.349Z,0.74
2023-02-11T02:54:38.059Z,0.77
2023-02-11T02:57:21.442Z,0.78
2023-02-11T03:00:02.790Z,0.79
2023-02-11T03:02:39.199Z,0.78
2023-02-11T03:05:17.330Z,0.76
2023-02-11T03:07:56.524Z,0.73
2023-02-11T03:10:29.978Z,0.71
2023-02-11T03:13:02.054Z,0.69
2023-02-11T03:15:38.587Z,0.68
2023-02-11T03:18:13.068Z,0.69
2023-02-11T03:20:46.533Z,0.70
2023-02-11T03:23:23.676Z,0.70
2023-02-11T03:25:57.864Z,0.74
2023-02-11T03:28:33.883Z,0.76
2023-02-11T03:31:14.597Z,0.78
2023-02-11T03:33:55.521Z,0.78
2023-02-11T03:36:32.710Z,0.79
2023-02-11T03:39:06.322Z,0.81
2023-02-11T03:41:38.728Z,0.83
2023-02-11T03:44:11.556Z,0.83
2023-02-11T03:46:48.328Z,0.84
2023-02-11T03:49:22.877Z,0.85
2023-02-11T03:51:54.853Z,0.88
2023-02-11T03:54:30.318Z,0.91
2023-02-11T03:57:03.346Z,0.95
2023-02-11T03:59:33.679Z,1.00
2023-02-11T04:02:03.961Z,1.07
2023-02-11T04:04:34.371Z,1.12
2023-02-11T04:07:04.670Z,1.15
2023-02-11T04:09:36.154Z,1.17
2023-02-11T04:12:07.439Z,1.21
2023-02-11T04:14:38.049Z,1.24
2023-02-11T04:17:08.554Z,1.26
2023-02-11T04:19:39.181Z,1.26
2023-02-11T04:22:09.843Z,1.25
2023-02-11T04:24:40.445Z,1.23
2023-02-11T04:27:10.814Z,1.21
2023-02-11T04:29:41.270Z,1.19
2023-02-11T04:32:12.217Z,1.16
2023-02-11T04:34:42.903Z,1.13
2023-02-11T04:37:13.206Z,1.10
2023-02-11T04:39:43.664Z,1.04
2023-02-11T04:42:14.118Z,0.99
2023-02-11T04:44:44.614Z,0.94
2023-02-11T04:47:15.405Z,0.90
2023-02-11T04:49:46.064Z,0.88
2023-02-11T04:52:16.462Z,0.86
2023-02-11T04:54:46.923Z,0.83
2023-02-11T04:57:17.448Z,0.78
2023-02-11T04:59:48.827Z,0.73
2023-02-11T05:02:17.705Z,0.69
2023-02-11T05:04:48.393Z,0.62
2023-02-11T05:07:18.785Z,0.55
2023-02-11T05:09:49.253Z,0.46
2023-02-11T05:12:19.778Z,0.39
2023-02-11T05:14:50.170Z,0.30
2023-02-11T05:17:20.619Z,0.21
2023-02-11T05:19:51.135Z,0.10
2023-02-11T05:22:22.117Z,-0.01
2023-02-11T05:24:52.980Z,-0.11
2023-02-11T05:27:23.689Z,-0.19
2023-02-11T05:29:54.074Z,-0.18
2023-02-11T05:32:24.525Z,-0.11
2023-02-11T05:34:54.925Z,-0.07
2023-02-11T05:37:25.366Z,-0.06
2023-02-11T05:39:55.812Z,-0.06
2023-02-11T05:42:26.166Z,-0.07
2023-02-11T05:44:56.580Z,-0.10
2023-02-11T05:47:27.066Z,-0.13
2023-02-11T05:49:57.573Z,-0.15
2023-02-11T05:52:27.946Z,-0.17
2023-02-11T05:54:58.266Z,-0.19
2023-02-11T05:57:28.655Z,-0.21
2023-02-11T05:59:58.974Z,-0.25
2023-02-11T06:02:29.394Z,-0.25
2023-02-11T06:04:59.959Z,-0.25
2023-02-11T06:07:30.327Z,-0.26
2023-02-11T06:10:00.729Z,-0.29
2023-02-11T06:12:31.259Z,-0.32
2023-02-11T06:15:01.649Z,-0.34
2023-02-11T06:17:33.813Z,-0.38
2023-02-11T06:20:05.292Z,-0.40
2023-02-11T06:22:35.786Z,-0.42
2023-02-11T06:25:07.030Z,-0.38
2023-02-11T06:27:37.329Z,-0.36
2023-02-11T06:30:09.918Z,-0.34
2023-02-11T06:32:44.555Z,-0.34
2023-02-11T06:35:16.119Z,-0.34
2023-02-11T06:37:46.858Z,-0.35
2023-02-11T06:40:17.469Z,-0.37
2023-02-11T06:42:47.875Z,-0.35
2023-02-11T06:45:19.073Z,-0.35
2023-02-11T06:47:52.183Z,-0.33
2023-02-11T06:50:22.928Z,-0.28
2023-02-11T06:52:53.270Z,-0.24
2023-02-11T06:55:23.807Z,-0.22
2023-02-11T06:57:54.182Z,-0.19
2023-02-11T07:00:33.684Z,-0.14
2023-02-11T07:03:06.501Z,-0.10
2023-02-11T07:05:38.772Z,-0.07
2023-02-11T07:08:09.255Z,-0.00
2023-02-11T07:10:39.697Z,0.04
2023-02-11T07:13:10.342Z,0.08
2023-02-11T07:15:42.287Z,0.12
2023-02-11T07:18:14.680Z,0.13
2023-02-11T07:20:45.380Z,0.18
2023-02-11T07:23:15.737Z,0.23
2023-02-11T07:25:46.186Z,0.30
2023-02-11T07:28:17.527Z,0.38
2023-02-11T07:30:46.438Z,0.44
2023-02-11T07:33:16.897Z,0.48
2023-02-11T07:35:47.303Z,0.52
2023-02-11T07:38:17.970Z,0.56
2023-02-11T07:40:48.327Z,0.60
2023-02-11T07:43:18.761Z,0.63
2023-02-11T07:45:49.495Z,0.67
2023-02-11T07:48:20.223Z,0.68
2023-02-11T07:50:51.057Z,0.71
2023-02-11T07:53:21.424Z,0.76
2023-02-11T07:55:52.321Z,0.81
2023-02-11T07:58:22.939Z,0.85
2023-02-11T08:00:54.121Z,0.89
2023-02-11T08:03:24.649Z,0.93
2023-02-11T08:05:55.113Z,0.99
2023-02-11T08:08:26.830Z,1.07
2023-02-11T08:10:57.299Z,1.14
2023-02-11T08:13:29.942Z,1.20
2023-02-11T08:16:01.831Z,1.26
2023-02-11T08:18:33.314Z,1.33
2023-02-11T08:21:08.399Z,1.40
2023-02-11T08:23:41.125Z,1.46
2023-02-11T08:26:15.429Z,1.52
2023-02-11T08:28:48.003Z,1.61
2023-02-11T08:31:21.823Z,1.70
2023-02-11T08:33:54.584Z,1.75
2023-02-11T08:36:29.053Z,1.80
2023-02-11T08:39:17.513Z,1.86
2023-02-11T08:41:49.876Z,1.91
2023-02-11T08:44:19.283Z,1.95
2023-02-11T08:46:50.744Z,1.97
2023-02-11T08:49:20.134Z,2.00
2023-02-11T08:51:50.656Z,2.03
2023-02-11T08:54:21.241Z,2.04
2023-02-11T08:56:53.488Z,2.07
2023-02-11T08:59:23.945Z,2.12
2023-02-11T09:01:54.511Z,2.17
2023-02-11T09:04:25.140Z,2.21
2023-02-11T09:06:55.975Z,2.26
2023-02-11T09:09:26.413Z,2.31
2023-02-11T09:11:57.436Z,2.36
2023-02-11T09:14:28.352Z,2.42
2023-02-11T09:16:58.846Z,2.49
2023-02-11T09:19:29.710Z,2.59
2023-02-11T09:22:00.619Z,2.71
2023-02-11T09:24:31.113Z,2.83
2023-02-11T09:27:01.616Z,2.95
2023-02-11T09:29:32.405Z,3.06
2023-02-11T09:32:09.361Z,3.16
2023-02-11T09:34:41.739Z,3.22
2023-02-11T09:37:12.357Z,3.30
2023-02-11T09:39:42.785Z,3.35
2023-02-11T09:42:40.108Z,3.43
2023-02-11T09:45:19.322Z,3.50
2023-02-11T09:47:58.019Z,3.55
2023-02-11T09:50:35.138Z,3.62
2023-02-11T09:53:15.488Z,3.71
2023-02-11T09:55:49.056Z,3.76
2023-02-11T09:58:25.847Z,3.85
2023-02-11T10:01:06.454Z,3.96
2023-02-11T10:04:00.947Z,4.04
2023-02-11T10:06:50.587Z,4.08
2023-02-11T10:09:49.161Z,4.15
2023-02-11T10:12:45.995Z,4.25
2023-02-11T10:15:26.058Z,4.32
2023-02-11T10:18:17.324Z,4.42
2023-02-11T10:20:59.460Z,4.50
2023-02-11T10:23:35.411Z,4.61
2023-02-11T10:26:13.124Z,4.71
2023-02-11T10:28:49.152Z,4.82
2023-02-11T10:31:29.368Z,4.92
2023-02-11T10:34:20.712Z,4.99
2023-02-11T10:37:23.341Z,5.08
2023-02-11T10:39:58.520Z,5.13
2023-02-11T10:42:42.589Z,5.21
2023-02-11T10:45:23.363Z,5.26
2023-02-11T10:47:55.274Z,5.25
2023-02-11T10:50:37.120Z,5.25
2023-02-11T10:53:21.001Z,5.32
2023-02-11T10:55:57.366Z,5.36
2023-02-11T10:58:32.661Z,5.35
2023-02-11T11:01:08.034Z,5.38
2023-02-11T11:03:50.890Z,5.47
2023-02-11T11:06:32.429Z,5.57
2023-02-11T11:09:02.093Z,5.61
2023-02-11T11:11:32.533Z,5.64
2023-02-11T11:14:03.684Z,5.63
2023-02-11T11:16:34.969Z,5.63
2023-02-11T11:19:26.436Z,5.67
2023-02-11T11:21:57.658Z,5.66
2023-02-11T11:24:44.057Z,5.66
2023-02-11T11:27:22.607Z,5.74
2023-02-11T11:29:56.388Z,5.80
2023-02-11T11:32:32.236Z,5.85
2023-02-11T11:35:07.681Z,5.96
2023-02-11T11:37:39.885Z,6.03
2023-02-11T11:42:21.183Z,6.10
2023-02-11T11:44:24.173Z,6.22
2023-02-11T11:47:10.556Z,6.29
2023-02-11T11:49:46.595Z,6.37
2023-02-11T11:52:34.597Z,6.48
2023-02-11T11:55:12.877Z,6.53
2023-02-11T11:57:44.491Z,6.58
2023-02-11T12:00:21.046Z,6.61
2023-02-11T12:03:26.743Z,6.59
2023-02-11T12:06:22.004Z,6.61
2023-02-11T12:09:03.424Z,6.62
2023-02-11T12:11:46.937Z,6.70
2023-02-11T12:14:30.702Z,6.88
2023-02-11T12:17:10.409Z,7.09
2023-02-11T12:20:05.581Z,7.21
2023-02-11T12:22:46.407Z,7.26
2023-02-11T12:25:27.957Z,7.19
2023-02-11T12:28:17.994Z,7.14
2023-02-11T12:31:05.711Z,7.07
2023-02-11T12:34:07.817Z,6.99
2023-02-11T12:36:55.272Z,7.00
2023-02-11T12:39:42.270Z,7.03
2023-02-11T12:43:02.462Z,7.03
2023-02-11T12:46:01.411Z,7.04
2023-02-11T12:48:54.316Z,7.04
2023-02-11T12:51:46.356Z,7.05
2023-02-11T12:54:26.676Z,7.08
2023-02-11T12:57:03.915Z,7.08
2023-02-11T12:59:46.553Z,7.07
2023-02-11T13:02:23.657Z,7.08
2023-02-11T13:04:58.674Z,7.08
2023-02-11T13:07:36.773Z,7.09
2023-02-11T13:10:17.861Z,7.08
2023-02-11T13:13:23.620Z,7.05
2023-02-11T13:16:00.961Z,7.03
2023-02-11T13:18:44.966Z,7.00
2023-02-11T13:21:30.837Z,6.98
2023-02-11T13:24:11.032Z,6.96
2023-02-11T13:26:48.650Z,6.94
2023-02-11T13:29:27.551Z,6.94
2023-02-11T13:32:08.101Z,6.95
2023-02-11T13:35:07.261Z,6.94
2023-02-11T13:37:40.429Z,6.95
2023-02-11T13:40:27.550Z,6.94
2023-02-11T13:43:00.273Z,6.98
2023-02-11T13:45:35.586Z,7.01
2023-02-11T13:48:09.988Z,7.02
2023-02-11T13:50:51.042Z,7.02
2023-02-11T13:53:22.785Z,6.97
2023-02-11T13:56:04.965Z,6.94
2023-02-11T13:58:47.689Z,6.93
2023-02-11T14:01:42.486Z,6.92
2023-02-11T14:04:43.929Z,6.92
2023-02-11T14:07:49.444Z,6.93
2023-02-11T14:10:52.414Z,6.90
2023-02-11T14:13:26.265Z,6.86
2023-02-11T14:16:22.547Z,6.83
2023-02-11T14:19:03.612Z,6.77
2023-02-11T14:21:37.469Z,6.75
2023-02-11T14:24:57.581Z,6.74
2023-02-11T14:27:33.172Z,6.72
2023-02-11T14:30:21.663Z,6.66
2023-02-11T14:33:12.059Z,6.61
2023-02-11T14:35:51.526Z,6.57
2023-02-11T14:38:30.215Z,6.54
2023-02-11T14:41:07.776Z,6.51
2023-02-11T14:43:45.481Z,6.48
2023-02-11T14:46:20.785Z,6.45
2023-02-11T14:48:55.185Z,6.42
2023-02-11T14:51:28.889Z,6.40
2023-02-11T14:54:03.629Z,6.38
2023-02-11T14:56:36.320Z,6.34
2023-02-11T14:59:20.087Z,6.34
2023-02-11T15:01:54.499Z,6.33
2023-02-11T15:04:30.644Z,6.32
2023-02-11T15:07:06.958Z,6.30
2023-02-11T15:09:43.062Z,6.27
2023-02-11T15:12:23.649Z,6.25
2023-02-11T15:14:56.338Z,6.24
2023-02-11T15:17:30.496Z,6.23
2023-02-11T15:20:04.088Z,6.20
2023-02-11T15:22:37.399Z,6.18
2023-02-11T15:25:14.885Z,6.17
2023-02-11T15:27:48.801Z,6.14
2023-02-11T15:30:31.685Z,6.14
2023-02-11T15:33:06.080Z,6.12
2023-02-11T15:35:39.383Z,6.11
2023-02-11T15:38:12.378Z,6.10
2023-02-11T15:40:52.533Z,6.10
2023-02-11T15:43:23.288Z,6.09
2023-02-11T15:46:02.376Z,6.08
2023-02-11T15:48:43.084Z,6.07
2023-02-11T15:51:22.728Z,6.06
2023-02-11T15:53:58.580Z,6.03
2023-02-11T15:56:33.082Z,6.00
2023-02-11T15:59:16.390Z,5.98
2023-02-11T16:01:48.554Z,5.94
2023-02-11T16:04:22.255Z,5.91
2023-02-11T16:06:53.462Z,5.85
2023-02-11T16:09:32.441Z,5.80
2023-02-11T16:12:07.391Z,5.77
2023-02-11T16:14:39.395Z,5.73
2023-02-11T16:17:12.118Z,5.70
2023-02-11T16:19:51.803Z,5.68
2023-02-11T16:22:27.301Z,5.64
2023-02-11T16:24:59.912Z,5.62
2023-02-11T16:27:36.550Z,5.59
2023-02-11T16:30:23.352Z,5.58
2023-02-11T16:32:55.828Z,5.55
2023-02-11T16:35:26.157Z,5.52
2023-02-11T16:37:56.833Z,5.49
2023-02-11T16:40:28.238Z,5.46
2023-02-11T16:42:57.313Z,5.44
2023-02-11T16:45:27.911Z,5.42
2023-02-11T16:47:58.499Z,5.40
2023-02-11T16:50:30.151Z,5.37
2023-02-11T16:53:02.177Z,5.34
2023-02-11T16:55:32.985Z,5.31
2023-02-11T16:58:03.832Z,5.27
2023-02-11T17:00:34.281Z,5.23
2023-02-11T17:03:08.820Z,5.20
2023-02-11T17:05:54.425Z,5.16
2023-02-11T17:08:25.850Z,5.13
2023-02-11T17:10:56.432Z,5.11
2023-02-11T17:13:27.030Z,5.09
2023-02-11T17:15:57.716Z,5.05
2023-02-11T17:18:31.657Z,5.02
2023-02-11T17:21:07.115Z,4.99
2023-02-11T17:23:37.897Z,4.98
2023-02-11T17:26:08.613Z,4.96
2023-02-11T17:28:39.116Z,4.94
2023-02-11T17:31:11.613Z,4.92
2023-02-11T17:33:42.709Z,4.89
2023-02-11T17:36:13.612Z,4.88
2023-02-11T17:38:44.743Z,4.86
2023-02-11T17:41:15.447Z,4.85
2023-02-11T17:43:49.088Z,4.84
2023-02-11T17:46:19.602Z,4.83
2023-02-11T17:48:50.388Z,4.83
2023-02-11T17:51:29.905Z,4.82
2023-02-11T17:54:09.405Z,4.81
2023-02-11T17:56:40.518Z,4.80
2023-02-11T17:59:15.348Z,4.78
2023-02-11T18:01:48.444Z,4.77
2023-02-11T18:04:20.457Z,4.75
2023-02-11T18:06:53.583Z,4.74
2023-02-11T18:09:24.115Z,4.72
2023-02-11T18:11:54.643Z,4.70
2023-02-11T18:14:25.452Z,4.68
2023-02-11T18:16:55.900Z,4.67
2023-02-11T18:19:30.483Z,4.66
2023-02-11T18:22:03.789Z,4.67
2023-02-11T18:24:34.315Z,4.68
2023-02-11T18:27:05.385Z,4.68
2023-02-11T18:29:36.531Z,4.68
2023-02-11T18:32:07.306Z,4.68
2023-02-11T18:34:37.776Z,4.68
2023-02-11T18:38:29.396Z,4.66
2023-02-11T18:40:42.700Z,4.65
2023-02-11T18:43:15.804Z,4.63
2023-02-11T18:45:47.088Z,4.62
2023-02-11T18:48:16.395Z,4.62
2023-02-11T18:50:48.414Z,4.62
2023-02-11T18:53:18.830Z,4.61
2023-02-11T18:55:49.893Z,4.60
2023-02-11T18:58:21.422Z,4.59
2023-02-11T19:00:52.217Z,4.58
2023-02-11T19:03:22.798Z,4.58
2023-02-11T19:05:56.340Z,4.57
2023-02-11T19:08:26.683Z,4.57
2023-02-11T19:10:56.993Z,4.55
2023-02-11T19:13:29.180Z,4.54
2023-02-11T19:15:59.684Z,4.54
2023-02-11T19:18:30.190Z,4.54
2023-02-11T19:21:00.598Z,4.54
2023-02-11T19:23:31.063Z,4.55
2023-02-11T19:26:04.511Z,4.54
2023-02-11T19:28:37.108Z,4.54
2023-02-11T19:31:11.971Z,4.53
2023-02-11T19:33:42.353Z,4.52
2023-02-11T19:36:16.356Z,4.52
2023-02-11T19:38:47.662Z,4.52
2023-02-11T19:41:22.070Z,4.52
2023-02-11T19:43:53.585Z,4.51
2023-02-11T19:46:25.247Z,4.51
2023-02-11T19:48:56.415Z,4.51
2023-02-11T19:51:26.885Z,4.51
2023-02-11T19:53:58.957Z,4.51
2023-02-11T19:56:32.059Z,4.50
2023-02-11T19:59:04.128Z,4.49
2023-02-11T20:01:34.668Z,4.48
2023-02-11T20:04:05.394Z,4.48
2023-02-11T20:06:36.305Z,4.47
2023-02-11T20:09:13.906Z,4.46
2023-02-11T20:11:45.326Z,4.46
2023-02-11T20:14:15.922Z,4.46
2023-02-11T20:16:49.778Z,4.44
2023-02-11T20:19:22.952Z,4.45
2023-02-11T20:21:56.223Z,4.46
2023-02-11T20:24:27.567Z,4.45
2023-02-11T20:26:56.875Z,4.45
2023-02-11T20:29:31.341Z,4.46
2023-02-11T20:32:02.957Z,4.45
2023-02-11T20:34:33.541Z,4.45
2023-02-11T20:37:04.052Z,4.44
2023-02-11T20:39:35.432Z,4.44
2023-02-11T20:42:04.464Z,4.43
2023-02-11T20:44:37.973Z,4.42
2023-02-11T20:47:08.632Z,4.42
2023-02-11T20:49:39.110Z,4.41
2023-02-11T20:52:11.144Z,4.40
2023-02-11T20:54:41.808Z,4.40
2023-02-11T20:57:12.468Z,4.38
2023-02-11T20:59:43.092Z,4.38
2023-02-11T21:02:13.657Z,4.36
2023-02-11T21:04:44.344Z,4.35
2023-02-11T21:07:14.876Z,4.35
2023-02-11T21:09:45.425Z,4.35
2023-02-11T21:12:15.869Z,4.33
2023-02-11T21:14:46.823Z,4.34
2023-02-11T21:17:17.352Z,4.33
2023-02-11T21:19:47.818Z,4.32
2023-02-11T21:22:18.348Z,4.31
2023-02-11T21:24:48.769Z,4.31
2023-02-11T21:27:19.074Z,4.30
2023-02-11T21:29:54.691Z,4.30
2023-02-11T21:32:25.413Z,4.30
2023-02-11T21:34:55.865Z,4.30
2023-02-11T21:37:26.488Z,4.29
2023-02-11T21:39:56.957Z,4.28
2023-02-11T21:42:27.380Z,4.28
2023-02-11T21:44:57.743Z,4.28
2023-02-11T21:47:28.141Z,4.29
2023-02-11T21:49:58.438Z,4.29
2023-02-11T21:52:28.878Z,4.29
2023-02-11T21:54:59.318Z,4.29
2023-02-11T21:57:30.343Z,4.28
2023-02-11T22:00:01.003Z,4.29
2023-02-11T22:02:31.396Z,4.29
2023-02-11T22:05:02.086Z,4.29
2023-02-11T22:07:32.425Z,4.28
2023-02-11T22:10:03.079Z,4.27
2023-02-11T22:12:33.432Z,4.27
2023-02-11T22:15:03.791Z,4.27
2023-02-11T22:17:34.576Z,4.27
2023-02-11T22:20:05.329Z,4.28
2023-02-11T22:22:35.805Z,4.28
2023-02-11T22:25:06.488Z,4.28
2023-02-11T22:27:36.872Z,4.27
2023-02-11T22:30:09.536Z,4.27
2023-02-11T22:32:39.883Z,4.25
2023-02-11T22:35:10.468Z,4.25
2023-02-11T22:37:40.754Z,4.23
2023-02-11T22:40:13.069Z,4.22
2023-02-11T22:42:43.464Z,4.20
2023-02-11T22:45:13.681Z,4.18
2023-02-11T22:47:44.247Z,4.15
2023-02-11T22:50:14.896Z,4.13
2023-02-11T22:52:45.275Z,4.12
2023-02-11T22:55:15.922Z,4.11
2023-02-11T22:57:46.353Z,4.10
2023-02-11T23:00:18.981Z,4.09
2023-02-11T23:02:50.514Z,4.08
2023-02-11T23:05:19.691Z,4.07
2023-02-11T23:07:50.291Z,4.06
2023-02-11T23:10:20.910Z,4.06
2023-02-11T23:12:51.247Z,4.05
2023-02-11T23:15:21.578Z,4.05
2023-02-11T23:17:51.890Z,4.05
2023-02-11T23:20:22.603Z,4.03
2023-02-11T23:22:52.972Z,4.03
2023-02-11T23:25:23.344Z,4.02
2023-02-11T23:27:53.598Z,4.01
2023-02-11T23:30:25.102Z,4.01
2023-02-11T23:32:55.414Z,4.01
2023-02-11T23:35:26.064Z,4.00
2023-02-11T23:37:56.682Z,4.01
2023-02-11T23:40:27.032Z,4.01
2023-02-11T23:42:57.429Z,4.01
2023-02-11T23:45:27.793Z,4.01
2023-02-11T23:47:58.175Z,4.02
2023-02-11T23:50:28.575Z,4.02
2023-02-11T23:52:58.940Z,4.03
2023-02-11T23:55:29.444Z,4.04
2023-02-11T23:57:59.784Z,4.05
